sensor_id;sensor_type;location;lat;lon;timestamp;P1;durP1;ratioP1;P2;durP2;ratioP2
77362;SDS011;66428;47.322;9.432;2023-12-04T00:01:15;1.27;;;0.82;;
77362;SDS011;66428;47.322;9.432;2023-12-04T00:03:45;0.80;;;0.80;;
77362;SDS011;66428;47.322;9.432;2023-12-04T00:06:13;0.75;;;0.75;;
77362;SDS011;66428;47.322;9.432;2023-12-04T00:08:41;0.95;;;0.65;;
77362;SDS011;66428;47.322;9.432;2023-12-04T00:11:10;0.73;;;0.60;;
77362;SDS011;66428;47.322;9.432;2023-12-04T00:13:40;0.30;;;0.30;;
77362;SDS011;66428;47.322;9.432;2023-12-04T00:16:08;0.52;;;0.47;;
77362;SDS011;66428;47.322;9.432;2023-12-04T00:18:36;0.35;;;0.35;;
77362;SDS011;66428;47.322;9.432;2023-12-04T00:21:04;0.55;;;0.45;;
77362;SDS011;66428;47.322;9.432;2023-12-04T00:23:34;0.70;;;0.70;;
77362;SDS011;66428;47.322;9.432;2023-12-04T00:26:02;1.20;;;0.60;;
77362;SDS011;66428;47.322;9.432;2023-12-04T00:28:31;2.90;;;1.23;;
77362;SDS011;66428;47.322;9.432;2023-12-04T00:31:00;1.63;;;0.60;;
77362;SDS011;66428;47.322;9.432;2023-12-04T00:33:27;0.98;;;0.82;;
77362;SDS011;66428;47.322;9.432;2023-12-04T00:35:56;0.52;;;0.47;;
77362;SDS011;66428;47.322;9.432;2023-12-04T00:38:27;1.73;;;0.65;;
77362;SDS011;66428;47.322;9.432;2023-12-04T00:40:55;1.33;;;0.80;;
77362;SDS011;66428;47.322;9.432;2023-12-04T00:43:23;0.85;;;0.57;;
77362;SDS011;66428;47.322;9.432;2023-12-04T00:45:54;0.30;;;0.30;;
77362;SDS011;66428;47.322;9.432;2023-12-04T00:48:22;0.52;;;0.52;;
77362;SDS011;66428;47.322;9.432;2023-12-04T00:50:52;0.88;;;0.60;;
77362;SDS011;66428;47.322;9.432;2023-12-04T00:53:19;0.70;;;0.65;;
77362;SDS011;66428;47.322;9.432;2023-12-04T00:55:49;0.65;;;0.40;;
77362;SDS011;66428;47.322;9.432;2023-12-04T00:58:19;1.13;;;0.98;;
77362;SDS011;66428;47.322;9.432;2023-12-04T01:00:47;2.00;;;0.77;;
77362;SDS011;66428;47.322;9.432;2023-12-04T01:03:18;1.48;;;0.82;;
77362;SDS011;66428;47.322;9.432;2023-12-04T01:05:46;1.80;;;1.10;;
77362;SDS011;66428;47.322;9.432;2023-12-04T01:08:13;1.02;;;0.60;;
77362;SDS011;66428;47.322;9.432;2023-12-04T01:10:41;3.72;;;0.95;;
77362;SDS011;66428;47.322;9.432;2023-12-04T01:13:09;0.50;;;0.40;;
77362;SDS011;66428;47.322;9.432;2023-12-04T01:15:37;1.10;;;0.73;;
77362;SDS011;66428;47.322;9.432;2023-12-04T01:18:07;0.65;;;0.55;;
77362;SDS011;66428;47.322;9.432;2023-12-04T01:20:36;0.82;;;0.68;;
77362;SDS011;66428;47.322;9.432;2023-12-04T01:23:05;0.65;;;0.50;;
77362;SDS011;66428;47.322;9.432;2023-12-04T01:25:32;2.33;;;0.95;;
77362;SDS011;66428;47.322;9.432;2023-12-04T01:28:00;0.70;;;0.70;;
77362;SDS011;66428;47.322;9.432;2023-12-04T01:30:28;1.38;;;0.68;;
77362;SDS011;66428;47.322;9.432;2023-12-04T01:32:56;0.80;;;0.52;;
77362;SDS011;66428;47.322;9.432;2023-12-04T01:35:26;3.10;;;0.82;;
77362;SDS011;66428;47.322;9.432;2023-12-04T01:37:57;2.00;;;0.80;;
77362;SDS011;66428;47.322;9.432;2023-12-04T01:40:25;0.98;;;0.75;;
77362;SDS011;66428;47.322;9.432;2023-12-04T01:42:53;1.73;;;0.82;;
77362;SDS011;66428;47.322;9.432;2023-12-04T01:45:21;1.02;;;0.93;;
77362;SDS011;66428;47.322;9.432;2023-12-04T01:47:48;0.55;;;0.52;;
77362;SDS011;66428;47.322;9.432;2023-12-04T01:50:19;1.33;;;0.88;;
77362;SDS011;66428;47.322;9.432;2023-12-04T01:52:47;1.15;;;0.85;;
77362;SDS011;66428;47.322;9.432;2023-12-04T01:55:16;0.80;;;0.68;;
77362;SDS011;66428;47.322;9.432;2023-12-04T01:57:44;0.47;;;0.45;;
77362;SDS011;66428;47.322;9.432;2023-12-04T02:00:12;1.67;;;1.27;;
77362;SDS011;66428;47.322;9.432;2023-12-04T02:02:41;0.95;;;0.68;;
77362;SDS011;66428;47.322;9.432;2023-12-04T02:05:11;1.48;;;0.95;;
77362;SDS011;66428;47.322;9.432;2023-12-04T02:07:40;2.60;;;0.95;;
77362;SDS011;66428;47.322;9.432;2023-12-04T02:10:12;1.48;;;0.82;;
77362;SDS011;66428;47.322;9.432;2023-12-04T02:12:41;0.63;;;0.63;;
77362;SDS011;66428;47.322;9.432;2023-12-04T02:15:09;1.70;;;1.08;;
77362;SDS011;66428;47.322;9.432;2023-12-04T02:17:37;1.15;;;0.65;;
77362;SDS011;66428;47.322;9.432;2023-12-04T02:20:05;1.13;;;0.77;;
77362;SDS011;66428;47.322;9.432;2023-12-04T02:22:34;1.85;;;1.27;;
77362;SDS011;66428;47.322;9.432;2023-12-04T02:25:04;2.33;;;1.08;;
77362;SDS011;66428;47.322;9.432;2023-12-04T02:27:34;2.20;;;1.25;;
77362;SDS011;66428;47.322;9.432;2023-12-04T02:30:05;3.65;;;2.13;;
77362;SDS011;66428;47.322;9.432;2023-12-04T02:32:34;1.52;;;1.20;;
77362;SDS011;66428;47.322;9.432;2023-12-04T02:35:03;3.20;;;1.38;;
77362;SDS011;66428;47.322;9.432;2023-12-04T02:37:32;1.55;;;0.90;;
77362;SDS011;66428;47.322;9.432;2023-12-04T02:40:00;2.97;;;1.60;;
77362;SDS011;66428;47.322;9.432;2023-12-04T02:42:30;4.22;;;2.22;;
77362;SDS011;66428;47.322;9.432;2023-12-04T02:44:58;3.67;;;1.55;;
77362;SDS011;66428;47.322;9.432;2023-12-04T02:47:25;4.50;;;1.88;;
77362;SDS011;66428;47.322;9.432;2023-12-04T02:49:53;2.53;;;1.42;;
77362;SDS011;66428;47.322;9.432;2023-12-04T02:52:23;4.35;;;1.77;;
77362;SDS011;66428;47.322;9.432;2023-12-04T02:54:51;3.20;;;1.25;;
77362;SDS011;66428;47.322;9.432;2023-12-04T02:57:19;2.35;;;1.20;;
77362;SDS011;66428;47.322;9.432;2023-12-04T02:59:51;1.85;;;1.38;;
77362;SDS011;66428;47.322;9.432;2023-12-04T03:02:19;5.78;;;1.80;;
77362;SDS011;66428;47.322;9.432;2023-12-04T03:04:47;6.78;;;3.05;;
77362;SDS011;66428;47.322;9.432;2023-12-04T03:07:14;4.07;;;1.92;;
77362;SDS011;66428;47.322;9.432;2023-12-04T03:09:42;8.50;;;2.75;;
77362;SDS011;66428;47.322;9.432;2023-12-04T03:12:15;5.93;;;2.20;;
77362;SDS011;66428;47.322;9.432;2023-12-04T03:14:43;7.88;;;3.22;;
77362;SDS011;66428;47.322;9.432;2023-12-04T03:17:12;8.18;;;2.45;;
77362;SDS011;66428;47.322;9.432;2023-12-04T03:19:42;7.18;;;3.63;;
77362;SDS011;66428;47.322;9.432;2023-12-04T03:22:10;10.20;;;2.88;;
77362;SDS011;66428;47.322;9.432;2023-12-04T03:24:37;8.68;;;3.42;;
77362;SDS011;66428;47.322;9.432;2023-12-04T03:27:05;8.50;;;3.10;;
77362;SDS011;66428;47.322;9.432;2023-12-04T03:29:33;11.30;;;4.05;;
77362;SDS011;66428;47.322;9.432;2023-12-04T03:32:01;11.40;;;4.93;;
77362;SDS011;66428;47.322;9.432;2023-12-04T03:34:30;4.68;;;2.88;;
77362;SDS011;66428;47.322;9.432;2023-12-04T03:36:57;7.53;;;3.75;;
77362;SDS011;66428;47.322;9.432;2023-12-04T03:39:25;4.90;;;2.78;;
77362;SDS011;66428;47.322;9.432;2023-12-04T03:41:53;8.20;;;3.45;;
77362;SDS011;66428;47.322;9.432;2023-12-04T03:44:22;3.75;;;1.85;;
77362;SDS011;66428;47.322;9.432;2023-12-04T03:46:52;6.07;;;3.05;;
77362;SDS011;66428;47.322;9.432;2023-12-04T03:49:20;5.05;;;2.55;;
77362;SDS011;66428;47.322;9.432;2023-12-04T03:51:49;6.78;;;2.58;;
77362;SDS011;66428;47.322;9.432;2023-12-04T03:54:17;5.97;;;2.80;;
77362;SDS011;66428;47.322;9.432;2023-12-04T03:56:46;3.20;;;1.98;;
77362;SDS011;66428;47.322;9.432;2023-12-04T03:59:16;4.38;;;2.05;;
77362;SDS011;66428;47.322;9.432;2023-12-04T04:01:44;4.53;;;2.15;;
77362;SDS011;66428;47.322;9.432;2023-12-04T04:04:12;5.55;;;2.28;;
77362;SDS011;66428;47.322;9.432;2023-12-04T04:06:40;7.32;;;1.73;;
77362;SDS011;66428;47.322;9.432;2023-12-04T04:09:09;5.10;;;2.13;;
77362;SDS011;66428;47.322;9.432;2023-12-04T04:11:36;3.38;;;1.92;;
77362;SDS011;66428;47.322;9.432;2023-12-04T04:14:04;4.05;;;1.63;;
77362;SDS011;66428;47.322;9.432;2023-12-04T04:16:34;4.85;;;2.70;;
77362;SDS011;66428;47.322;9.432;2023-12-04T04:19:02;2.45;;;1.52;;
77362;SDS011;66428;47.322;9.432;2023-12-04T04:21:32;2.50;;;1.27;;
77362;SDS011;66428;47.322;9.432;2023-12-04T04:24:01;2.30;;;1.17;;
77362;SDS011;66428;47.322;9.432;2023-12-04T04:26:30;2.97;;;1.60;;
77362;SDS011;66428;47.322;9.432;2023-12-04T04:28:58;1.38;;;1.13;;
77362;SDS011;66428;47.322;9.432;2023-12-04T04:31:28;3.08;;;1.65;;
77362;SDS011;66428;47.322;9.432;2023-12-04T04:33:58;4.60;;;2.00;;
77362;SDS011;66428;47.322;9.432;2023-12-04T04:36:26;4.57;;;1.75;;
77362;SDS011;66428;47.322;9.432;2023-12-04T04:38:54;5.47;;;2.05;;
77362;SDS011;66428;47.322;9.432;2023-12-04T04:41:22;5.18;;;1.67;;
77362;SDS011;66428;47.322;9.432;2023-12-04T04:43:51;1.52;;;1.05;;
77362;SDS011;66428;47.322;9.432;2023-12-04T04:46:19;3.92;;;1.65;;
77362;SDS011;66428;47.322;9.432;2023-12-04T04:48:47;3.03;;;1.35;;
77362;SDS011;66428;47.322;9.432;2023-12-04T04:51:15;3.05;;;1.92;;
77362;SDS011;66428;47.322;9.432;2023-12-04T04:53:45;2.92;;;1.70;;
77362;SDS011;66428;47.322;9.432;2023-12-04T04:56:13;3.67;;;2.22;;
77362;SDS011;66428;47.322;9.432;2023-12-04T04:58:40;4.05;;;2.20;;
77362;SDS011;66428;47.322;9.432;2023-12-04T05:01:10;2.75;;;1.55;;
77362;SDS011;66428;47.322;9.432;2023-12-04T05:03:40;6.88;;;2.67;;
77362;SDS011;66428;47.322;9.432;2023-12-04T05:06:08;2.28;;;1.25;;
77362;SDS011;66428;47.322;9.432;2023-12-04T05:08:39;4.68;;;2.50;;
77362;SDS011;66428;47.322;9.432;2023-12-04T05:11:09;4.05;;;2.13;;
77362;SDS011;66428;47.322;9.432;2023-12-04T05:13:36;3.90;;;1.92;;
77362;SDS011;66428;47.322;9.432;2023-12-04T05:16:04;5.32;;;1.92;;
77362;SDS011;66428;47.322;9.432;2023-12-04T05:18:33;2.33;;;1.80;;
77362;SDS011;66428;47.322;9.432;2023-12-04T05:21:01;3.33;;;1.90;;
77362;SDS011;66428;47.322;9.432;2023-12-04T05:23:29;3.72;;;2.25;;
77362;SDS011;66428;47.322;9.432;2023-12-04T05:25:57;5.13;;;3.13;;
77362;SDS011;66428;47.322;9.432;2023-12-04T05:28:24;3.53;;;2.10;;
77362;SDS011;66428;47.322;9.432;2023-12-04T05:30:54;3.95;;;2.15;;
77362;SDS011;66428;47.322;9.432;2023-12-04T05:33:22;6.50;;;2.50;;
77362;SDS011;66428;47.322;9.432;2023-12-04T05:35:51;4.00;;;2.22;;
77362;SDS011;66428;47.322;9.432;2023-12-04T05:38:19;5.05;;;2.40;;
77362;SDS011;66428;47.322;9.432;2023-12-04T05:40:47;6.00;;;2.33;;
77362;SDS011;66428;47.322;9.432;2023-12-04T05:43:17;6.85;;;3.25;;
77362;SDS011;66428;47.322;9.432;2023-12-04T05:45:46;4.07;;;2.35;;
77362;SDS011;66428;47.322;9.432;2023-12-04T05:48:18;4.43;;;2.35;;
77362;SDS011;66428;47.322;9.432;2023-12-04T05:50:46;5.65;;;2.05;;
77362;SDS011;66428;47.322;9.432;2023-12-04T05:53:17;5.88;;;2.63;;
77362;SDS011;66428;47.322;9.432;2023-12-04T05:55:47;11.07;;;4.72;;
77362;SDS011;66428;47.322;9.432;2023-12-04T05:58:15;9.57;;;5.03;;
77362;SDS011;66428;47.322;9.432;2023-12-04T06:00:43;13.27;;;6.68;;
77362;SDS011;66428;47.322;9.432;2023-12-04T06:03:10;11.65;;;6.68;;
77362;SDS011;66428;47.322;9.432;2023-12-04T06:05:38;12.15;;;5.80;;
77362;SDS011;66428;47.322;9.432;2023-12-04T06:08:06;14.32;;;7.00;;
77362;SDS011;66428;47.322;9.432;2023-12-04T06:10:35;12.30;;;6.93;;
77362;SDS011;66428;47.322;9.432;2023-12-04T06:13:03;14.98;;;6.30;;
77362;SDS011;66428;47.322;9.432;2023-12-04T06:15:30;13.40;;;6.25;;
77362;SDS011;66428;47.322;9.432;2023-12-04T06:17:58;11.85;;;7.10;;
77362;SDS011;66428;47.322;9.432;2023-12-04T06:20:26;7.93;;;5.85;;
77362;SDS011;66428;47.322;9.432;2023-12-04T06:22:54;8.48;;;5.78;;
77362;SDS011;66428;47.322;9.432;2023-12-04T06:25:22;8.60;;;5.28;;
77362;SDS011;66428;47.322;9.432;2023-12-04T06:27:52;12.27;;;5.93;;
77362;SDS011;66428;47.322;9.432;2023-12-04T06:30:20;9.93;;;5.68;;
77362;SDS011;66428;47.322;9.432;2023-12-04T06:32:48;9.77;;;5.18;;
77362;SDS011;66428;47.322;9.432;2023-12-04T06:35:16;8.43;;;5.40;;
77362;SDS011;66428;47.322;9.432;2023-12-04T06:37:47;7.30;;;4.13;;
77362;SDS011;66428;47.322;9.432;2023-12-04T06:40:15;14.70;;;5.60;;
77362;SDS011;66428;47.322;9.432;2023-12-04T06:42:46;7.95;;;4.20;;
77362;SDS011;66428;47.322;9.432;2023-12-04T06:45:16;13.00;;;4.60;;
77362;SDS011;66428;47.322;9.432;2023-12-04T06:47:43;9.73;;;3.80;;
77362;SDS011;66428;47.322;9.432;2023-12-04T06:50:13;9.30;;;5.20;;
77362;SDS011;66428;47.322;9.432;2023-12-04T06:52:40;8.98;;;4.88;;
77362;SDS011;66428;47.322;9.432;2023-12-04T06:55:12;12.52;;;5.10;;
77362;SDS011;66428;47.322;9.432;2023-12-04T06:57:39;9.38;;;5.28;;
77362;SDS011;66428;47.322;9.432;2023-12-04T07:00:07;6.88;;;3.80;;
77362;SDS011;66428;47.322;9.432;2023-12-04T07:02:49;8.43;;;3.97;;
77362;SDS011;66428;47.322;9.432;2023-12-04T07:05:18;6.93;;;3.25;;
77362;SDS011;66428;47.322;9.432;2023-12-04T07:07:46;10.25;;;5.05;;
77362;SDS011;66428;47.322;9.432;2023-12-04T07:10:14;10.98;;;4.78;;
77362;SDS011;66428;47.322;9.432;2023-12-04T07:12:42;14.00;;;6.28;;
77362;SDS011;66428;47.322;9.432;2023-12-04T07:15:10;13.65;;;6.18;;
77362;SDS011;66428;47.322;9.432;2023-12-04T07:17:38;13.20;;;5.68;;
77362;SDS011;66428;47.322;9.432;2023-12-04T07:20:09;10.55;;;5.25;;
77362;SDS011;66428;47.322;9.432;2023-12-04T07:22:38;8.20;;;5.05;;
77362;SDS011;66428;47.322;9.432;2023-12-04T07:25:06;9.63;;;5.32;;
77362;SDS011;66428;47.322;9.432;2023-12-04T07:27:34;9.25;;;4.57;;
77362;SDS011;66428;47.322;9.432;2023-12-04T07:30:03;7.00;;;4.22;;
77362;SDS011;66428;47.322;9.432;2023-12-04T07:32:33;8.23;;;3.90;;
77362;SDS011;66428;47.322;9.432;2023-12-04T07:35:02;5.80;;;3.28;;
77362;SDS011;66428;47.322;9.432;2023-12-04T07:37:31;7.32;;;3.90;;
77362;SDS011;66428;47.322;9.432;2023-12-04T07:39:58;6.13;;;3.45;;
77362;SDS011;66428;47.322;9.432;2023-12-04T07:42:26;6.63;;;3.83;;
77362;SDS011;66428;47.322;9.432;2023-12-04T07:44:56;5.05;;;3.05;;
77362;SDS011;66428;47.322;9.432;2023-12-04T07:47:26;6.05;;;3.00;;
77362;SDS011;66428;47.322;9.432;2023-12-04T07:49:54;5.03;;;2.67;;
77362;SDS011;66428;47.322;9.432;2023-12-04T07:52:22;5.93;;;3.45;;
77362;SDS011;66428;47.322;9.432;2023-12-04T07:54:54;8.85;;;3.03;;
77362;SDS011;66428;47.322;9.432;2023-12-04T07:57:22;8.55;;;4.05;;
77362;SDS011;66428;47.322;9.432;2023-12-04T07:59:50;5.85;;;3.47;;
77362;SDS011;66428;47.322;9.432;2023-12-04T08:02:18;8.45;;;4.03;;
77362;SDS011;66428;47.322;9.432;2023-12-04T08:04:45;36.30;;;16.60;;
77362;SDS011;66428;47.322;9.432;2023-12-04T08:07:13;15.60;;;7.00;;
77362;SDS011;66428;47.322;9.432;2023-12-04T08:09:41;10.70;;;5.55;;
77362;SDS011;66428;47.322;9.432;2023-12-04T08:12:10;10.50;;;5.13;;
77362;SDS011;66428;47.322;9.432;2023-12-04T08:14:38;12.98;;;5.82;;
77362;SDS011;66428;47.322;9.432;2023-12-04T08:17:08;11.15;;;5.20;;
77362;SDS011;66428;47.322;9.432;2023-12-04T08:19:36;8.18;;;3.35;;
77362;SDS011;66428;47.322;9.432;2023-12-04T08:22:04;9.75;;;3.97;;
77362;SDS011;66428;47.322;9.432;2023-12-04T08:24:32;8.98;;;4.30;;
77362;SDS011;66428;47.322;9.432;2023-12-04T08:27:00;13.77;;;5.05;;
77362;SDS011;66428;47.322;9.432;2023-12-04T08:29:29;11.10;;;6.20;;
77362;SDS011;66428;47.322;9.432;2023-12-04T08:31:57;9.70;;;4.57;;
77362;SDS011;66428;47.322;9.432;2023-12-04T08:34:25;6.57;;;4.07;;
77362;SDS011;66428;47.322;9.432;2023-12-04T08:36:53;10.30;;;4.72;;
77362;SDS011;66428;47.322;9.432;2023-12-04T08:39:21;7.65;;;4.00;;
77362;SDS011;66428;47.322;9.432;2023-12-04T08:41:49;6.85;;;3.45;;
77362;SDS011;66428;47.322;9.432;2023-12-04T08:44:29;8.13;;;4.32;;
77362;SDS011;66428;47.322;9.432;2023-12-04T08:46:57;7.03;;;3.60;;
77362;SDS011;66428;47.322;9.432;2023-12-04T08:49:28;10.20;;;5.22;;
77362;SDS011;66428;47.322;9.432;2023-12-04T08:54:38;7.20;;;4.55;;
77362;SDS011;66428;47.322;9.432;2023-12-04T08:57:06;9.70;;;4.63;;
77362;SDS011;66428;47.322;9.432;2023-12-04T08:59:37;13.40;;;5.95;;
77362;SDS011;66428;47.322;9.432;2023-12-04T09:02:05;13.18;;;7.15;;
77362;SDS011;66428;47.322;9.432;2023-12-04T09:04:39;12.32;;;6.32;;
77362;SDS011;66428;47.322;9.432;2023-12-04T09:07:07;13.57;;;5.80;;
77362;SDS011;66428;47.322;9.432;2023-12-04T09:09:40;11.35;;;6.70;;
77362;SDS011;66428;47.322;9.432;2023-12-04T09:12:09;11.95;;;6.45;;
77362;SDS011;66428;47.322;9.432;2023-12-04T09:14:38;10.02;;;6.38;;
77362;SDS011;66428;47.322;9.432;2023-12-04T09:17:06;8.50;;;5.18;;
77362;SDS011;66428;47.322;9.432;2023-12-04T09:19:34;9.30;;;4.47;;
77362;SDS011;66428;47.322;9.432;2023-12-04T09:22:02;9.32;;;4.47;;
77362;SDS011;66428;47.322;9.432;2023-12-04T09:24:42;8.25;;;4.05;;
77362;SDS011;66428;47.322;9.432;2023-12-04T09:27:11;9.85;;;5.22;;
77362;SDS011;66428;47.322;9.432;2023-12-04T09:29:41;7.32;;;3.80;;
77362;SDS011;66428;47.322;9.432;2023-12-04T09:32:09;7.68;;;4.07;;
77362;SDS011;66428;47.322;9.432;2023-12-04T09:34:39;8.57;;;4.88;;
77362;SDS011;66428;47.322;9.432;2023-12-04T09:37:07;6.82;;;4.13;;
77362;SDS011;66428;47.322;9.432;2023-12-04T09:39:38;8.52;;;4.20;;
77362;SDS011;66428;47.322;9.432;2023-12-04T09:42:06;8.35;;;3.97;;
77362;SDS011;66428;47.322;9.432;2023-12-04T09:44:34;10.65;;;5.07;;
77362;SDS011;66428;47.322;9.432;2023-12-04T09:47:04;9.30;;;4.47;;
77362;SDS011;66428;47.322;9.432;2023-12-04T09:49:32;10.32;;;4.78;;
77362;SDS011;66428;47.322;9.432;2023-12-04T09:52:03;13.75;;;6.53;;
77362;SDS011;66428;47.322;9.432;2023-12-04T09:54:31;18.50;;;6.07;;
77362;SDS011;66428;47.322;9.432;2023-12-04T09:57:00;17.73;;;7.20;;
77362;SDS011;66428;47.322;9.432;2023-12-04T09:59:29;15.48;;;6.95;;
77362;SDS011;66428;47.322;9.432;2023-12-04T10:01:58;18.45;;;7.70;;
77362;SDS011;66428;47.322;9.432;2023-12-04T10:04:27;19.92;;;7.60;;
77362;SDS011;66428;47.322;9.432;2023-12-04T10:06:58;26.90;;;8.98;;
77362;SDS011;66428;47.322;9.432;2023-12-04T10:09:25;26.67;;;9.95;;
77362;SDS011;66428;47.322;9.432;2023-12-04T10:11:55;25.17;;;10.73;;
77362;SDS011;66428;47.322;9.432;2023-12-04T10:14:23;26.73;;;9.57;;
77362;SDS011;66428;47.322;9.432;2023-12-04T10:16:52;28.38;;;10.05;;
77362;SDS011;66428;47.322;9.432;2023-12-04T10:19:21;36.67;;;11.38;;
77362;SDS011;66428;47.322;9.432;2023-12-04T10:21:55;31.35;;;11.55;;
77362;SDS011;66428;47.322;9.432;2023-12-04T10:24:27;30.48;;;11.82;;
77362;SDS011;66428;47.322;9.432;2023-12-04T10:26:57;28.55;;;10.52;;
77362;SDS011;66428;47.322;9.432;2023-12-04T10:29:26;29.50;;;11.13;;
77362;SDS011;66428;47.322;9.432;2023-12-04T10:31:58;34.63;;;12.05;;
77362;SDS011;66428;47.322;9.432;2023-12-04T10:34:29;29.83;;;11.32;;
77362;SDS011;66428;47.322;9.432;2023-12-04T10:37:02;26.88;;;11.23;;
77362;SDS011;66428;47.322;9.432;2023-12-04T10:39:30;26.15;;;10.18;;
77362;SDS011;66428;47.322;9.432;2023-12-04T10:42:01;26.65;;;10.50;;
77362;SDS011;66428;47.322;9.432;2023-12-04T10:44:31;22.05;;;10.20;;
77362;SDS011;66428;47.322;9.432;2023-12-04T10:47:00;28.92;;;11.23;;
77362;SDS011;66428;47.322;9.432;2023-12-04T10:49:28;27.38;;;10.75;;
77362;SDS011;66428;47.322;9.432;2023-12-04T10:51:56;29.15;;;11.27;;
77362;SDS011;66428;47.322;9.432;2023-12-04T10:54:27;27.17;;;10.93;;
77362;SDS011;66428;47.322;9.432;2023-12-04T10:56:57;21.67;;;8.82;;
77362;SDS011;66428;47.322;9.432;2023-12-04T10:59:27;25.00;;;10.20;;
77362;SDS011;66428;47.322;9.432;2023-12-04T11:01:58;28.77;;;11.38;;
77362;SDS011;66428;47.322;9.432;2023-12-04T11:04:32;27.42;;;12.23;;
77362;SDS011;66428;47.322;9.432;2023-12-04T11:07:02;30.50;;;10.85;;
77362;SDS011;66428;47.322;9.432;2023-12-04T11:09:34;23.30;;;9.02;;
77362;SDS011;66428;47.322;9.432;2023-12-04T11:12:04;26.77;;;9.13;;
77362;SDS011;66428;47.322;9.432;2023-12-04T11:14:34;47.58;;;18.02;;
77362;SDS011;66428;47.322;9.432;2023-12-04T11:17:08;30.23;;;11.00;;
77362;SDS011;66428;47.322;9.432;2023-12-04T11:19:39;22.35;;;9.88;;
77362;SDS011;66428;47.322;9.432;2023-12-04T11:22:11;24.33;;;8.63;;
77362;SDS011;66428;47.322;9.432;2023-12-04T11:24:40;20.40;;;9.48;;
77362;SDS011;66428;47.322;9.432;2023-12-04T11:27:08;26.35;;;13.25;;
77362;SDS011;66428;47.322;9.432;2023-12-04T11:29:36;22.73;;;10.38;;
77362;SDS011;66428;47.322;9.432;2023-12-04T11:32:05;24.35;;;11.95;;
77362;SDS011;66428;47.322;9.432;2023-12-04T11:34:36;22.30;;;8.95;;
77362;SDS011;66428;47.322;9.432;2023-12-04T11:37:06;23.88;;;8.27;;
77362;SDS011;66428;47.322;9.432;2023-12-04T11:39:34;22.10;;;8.90;;
77362;SDS011;66428;47.322;9.432;2023-12-04T11:42:07;22.45;;;9.02;;
77362;SDS011;66428;47.322;9.432;2023-12-04T11:44:34;24.58;;;9.82;;
77362;SDS011;66428;47.322;9.432;2023-12-04T11:47:03;27.05;;;12.02;;
77362;SDS011;66428;47.322;9.432;2023-12-04T11:49:32;23.17;;;9.80;;
77362;SDS011;66428;47.322;9.432;2023-12-04T11:52:02;22.35;;;9.35;;
77362;SDS011;66428;47.322;9.432;2023-12-04T11:57:24;32.60;;;10.98;;
77362;SDS011;66428;47.322;9.432;2023-12-04T11:59:52;27.40;;;10.77;;
77362;SDS011;66428;47.322;9.432;2023-12-04T12:02:38;27.15;;;11.32;;
77362;SDS011;66428;47.322;9.432;2023-12-04T12:05:25;27.60;;;11.13;;
77362;SDS011;66428;47.322;9.432;2023-12-04T12:07:54;25.65;;;9.85;;
77362;SDS011;66428;47.322;9.432;2023-12-04T12:10:22;26.52;;;10.90;;
77362;SDS011;66428;47.322;9.432;2023-12-04T12:12:51;22.02;;;10.02;;
77362;SDS011;66428;47.322;9.432;2023-12-04T12:15:19;21.23;;;9.48;;
77362;SDS011;66428;47.322;9.432;2023-12-04T12:17:47;19.88;;;10.32;;
77362;SDS011;66428;47.322;9.432;2023-12-04T12:20:20;24.25;;;11.48;;
77362;SDS011;66428;47.322;9.432;2023-12-04T12:22:52;21.70;;;10.05;;
77362;SDS011;66428;47.322;9.432;2023-12-04T12:25:19;24.33;;;10.18;;
77362;SDS011;66428;47.322;9.432;2023-12-04T12:27:50;20.42;;;9.43;;
77362;SDS011;66428;47.322;9.432;2023-12-04T12:30:18;21.23;;;8.88;;
77362;SDS011;66428;47.322;9.432;2023-12-04T12:32:46;19.52;;;8.30;;
77362;SDS011;66428;47.322;9.432;2023-12-04T12:35:14;17.60;;;8.35;;
77362;SDS011;66428;47.322;9.432;2023-12-04T12:37:42;21.23;;;7.80;;
77362;SDS011;66428;47.322;9.432;2023-12-04T12:40:12;22.80;;;10.05;;
77362;SDS011;66428;47.322;9.432;2023-12-04T12:42:40;19.33;;;8.73;;
77362;SDS011;66428;47.322;9.432;2023-12-04T12:45:11;19.25;;;9.13;;
77362;SDS011;66428;47.322;9.432;2023-12-04T12:47:42;24.33;;;10.68;;
77362;SDS011;66428;47.322;9.432;2023-12-04T12:50:10;22.52;;;9.48;;
77362;SDS011;66428;47.322;9.432;2023-12-04T12:52:42;27.45;;;10.23;;
77362;SDS011;66428;47.322;9.432;2023-12-04T12:55:22;22.60;;;9.98;;
77362;SDS011;66428;47.322;9.432;2023-12-04T12:57:49;20.42;;;10.48;;
77362;SDS011;66428;47.322;9.432;2023-12-04T13:00:19;22.17;;;9.07;;
77362;SDS011;66428;47.322;9.432;2023-12-04T13:02:47;24.60;;;10.45;;
77362;SDS011;66428;47.322;9.432;2023-12-04T13:05:15;23.27;;;11.32;;
77362;SDS011;66428;47.322;9.432;2023-12-04T13:07:46;21.52;;;10.43;;
77362;SDS011;66428;47.322;9.432;2023-12-04T13:10:14;25.45;;;10.15;;
77362;SDS011;66428;47.322;9.432;2023-12-04T13:12:42;24.63;;;8.82;;
77362;SDS011;66428;47.322;9.432;2023-12-04T13:15:10;17.48;;;9.13;;
77362;SDS011;66428;47.322;9.432;2023-12-04T13:17:39;23.08;;;9.32;;
77362;SDS011;66428;47.322;9.432;2023-12-04T13:20:07;22.77;;;9.48;;
77362;SDS011;66428;47.322;9.432;2023-12-04T13:22:40;20.10;;;9.30;;
77362;SDS011;66428;47.322;9.432;2023-12-04T13:25:08;23.50;;;9.98;;
77362;SDS011;66428;47.322;9.432;2023-12-04T13:27:38;24.27;;;9.82;;
77362;SDS011;66428;47.322;9.432;2023-12-04T13:30:09;21.23;;;9.85;;
77362;SDS011;66428;47.322;9.432;2023-12-04T13:32:40;20.67;;;8.65;;
77362;SDS011;66428;47.322;9.432;2023-12-04T13:35:11;19.85;;;9.77;;
77362;SDS011;66428;47.322;9.432;2023-12-04T13:37:39;18.55;;;9.15;;
77362;SDS011;66428;47.322;9.432;2023-12-04T13:40:07;21.05;;;10.02;;
77362;SDS011;66428;47.322;9.432;2023-12-04T13:42:38;22.45;;;8.82;;
77362;SDS011;66428;47.322;9.432;2023-12-04T13:45:25;18.25;;;7.75;;
77362;SDS011;66428;47.322;9.432;2023-12-04T13:47:56;19.08;;;8.85;;
77362;SDS011;66428;47.322;9.432;2023-12-04T13:50:24;20.90;;;8.35;;
77362;SDS011;66428;47.322;9.432;2023-12-04T13:52:55;22.67;;;9.95;;
77362;SDS011;66428;47.322;9.432;2023-12-04T13:55:26;21.73;;;8.73;;
77362;SDS011;66428;47.322;9.432;2023-12-04T13:58:14;23.73;;;10.02;;
77362;SDS011;66428;47.322;9.432;2023-12-04T14:01:06;17.80;;;8.48;;
77362;SDS011;66428;47.322;9.432;2023-12-04T14:03:44;20.40;;;8.40;;
77362;SDS011;66428;47.322;9.432;2023-12-04T14:06:14;18.25;;;8.25;;
77362;SDS011;66428;47.322;9.432;2023-12-04T14:08:44;21.52;;;8.32;;
77362;SDS011;66428;47.322;9.432;2023-12-04T14:11:15;16.52;;;7.05;;
77362;SDS011;66428;47.322;9.432;2023-12-04T14:13:42;16.85;;;8.48;;
77362;SDS011;66428;47.322;9.432;2023-12-04T14:16:10;11.02;;;5.65;;
77362;SDS011;66428;47.322;9.432;2023-12-04T14:18:40;13.00;;;6.43;;
77362;SDS011;66428;47.322;9.432;2023-12-04T14:21:12;12.55;;;6.00;;
77362;SDS011;66428;47.322;9.432;2023-12-04T14:23:42;9.55;;;5.05;;
77362;SDS011;66428;47.322;9.432;2023-12-04T14:26:10;7.85;;;4.60;;
77362;SDS011;66428;47.322;9.432;2023-12-04T14:28:38;10.35;;;4.75;;
77362;SDS011;66428;47.322;9.432;2023-12-04T14:31:09;8.82;;;4.38;;
77362;SDS011;66428;47.322;9.432;2023-12-04T14:33:37;10.77;;;4.47;;
77362;SDS011;66428;47.322;9.432;2023-12-04T14:36:12;13.85;;;6.35;;
77362;SDS011;66428;47.322;9.432;2023-12-04T14:38:40;13.75;;;5.90;;
77362;SDS011;66428;47.322;9.432;2023-12-04T14:41:08;11.18;;;4.82;;
77362;SDS011;66428;47.322;9.432;2023-12-04T14:43:36;14.55;;;5.55;;
77362;SDS011;66428;47.322;9.432;2023-12-04T14:46:05;16.23;;;7.80;;
77362;SDS011;66428;47.322;9.432;2023-12-04T14:48:42;35.83;;;13.38;;
77362;SDS011;66428;47.322;9.432;2023-12-04T14:51:13;23.23;;;11.50;;
77362;SDS011;66428;47.322;9.432;2023-12-04T14:53:41;25.60;;;9.23;;
77362;SDS011;66428;47.322;9.432;2023-12-04T14:56:15;18.00;;;8.05;;
77362;SDS011;66428;47.322;9.432;2023-12-04T14:58:50;13.52;;;7.13;;